Flight Track Log - Related Links

Times and Time Zones

All times are in EDT time to prevent confusion due to time zone crossing. See the RPA3396 flight status page for this flight to view local times or setup timezone preferences in your user account.

Time Position Orientation Groundspeed Altitude Reporting Facility
EDT Latitude Longitude Course Direction KTS MPH feet Rate Location/Type
Tue 12:01:35 PM 44.8500 -93.2167 117° Southeast 164 189 2,100  Level Minneapolis TRACON
Tue 12:02:15 PM 44.8297 -93.1864 133° Southeast 181 208 2,900 1,824 Climbing Minneapolis Center
Tue 12:03:00 PM 44.7606 -92.7794 111° Southeast  Level Estimated
Tue 12:03:17 PM 44.7978 -93.1008 118° Southeast 249 287 5,200  Level Minneapolis Center
Tue 12:04:00 PM 44.7198 -92.6324 113° Southeast  Level Estimated
Tue 12:04:19 PM 44.7708 -92.9983 110° East 276 318 8,100  Level Minneapolis Center
Tue 12:05:00 PM 44.6581 -92.5007 123° Southeast  Level FlightAware Approximate
Tue 12:05:21 PM 44.7417 -92.8908 111° Southeast 291 335 10,700  Level Minneapolis Center
Tue 12:06:00 PM 44.6051 -92.3514 117° Southeast  Level FlightAware Approximate
Tue 12:06:23 PM 44.6928 -92.7519 116° Southeast 328 377 13,500  Level Minneapolis Center
Tue 12:07:25 PM 44.6497 -92.6344 117° Southeast 339 390 15,800 2,081 Climbing Minneapolis Center
Tue 12:08:27 PM 44.6053 -92.5125 117° Southeast 350 403 17,800 1,887 Climbing Minneapolis Center
Tue 12:09:29 PM 44.5589 -92.3883 118° Southeast 357 411 19,700 1,887 Climbing Minneapolis Center
Tue 12:10:31 PM 44.5117 -92.2594 117° Southeast 369 425 21,700 1,742 Climbing Minneapolis Center
Tue 12:11:33 PM 44.4625 -92.1275 118° Southeast 380 437 23,300 1,694 Climbing Minneapolis Center
Tue 12:12:35 PM 44.4025 -91.9653 117° Southeast 392 451 25,200 1,488 Climbing Minneapolis Center
Tue 12:13:38 PM 44.3508 -91.8272 118° Southeast 400 460 26,400 1,248 Climbing Minneapolis Center
Tue 12:14:40 PM 44.2975 -91.6839 117° Southeast 413 475 27,800 1,258 Climbing Minneapolis Center
Tue 12:15:42 PM 44.2447 -91.5417 117° Southeast 414 476 29,000 1,016 Climbing Minneapolis Center
Tue 12:16:44 PM 44.1889 -91.3983 118° Southeast 420 483 29,900 1,016 Climbing Minneapolis Center
Tue 12:17:46 PM 44.1250 -91.2281 118° Southeast 427 491 31,100 968 Climbing Minneapolis Center
Tue 12:18:48 PM 44.0689 -91.0808 118° Southeast 431 496 31,900 823 Climbing Minneapolis Center
Tue 12:19:50 PM 44.0122 -90.9347 118° Southeast 432 497 32,800 823 Climbing Minneapolis Center
Tue 12:20:52 PM 43.9561 -90.7883 118° Southeast 433 498 33,600 485 Climbing Minneapolis Center
Tue 12:22:06 PM 43.8997 -90.6417 118° Southeast 434 499 33,900 404 Climbing Minneapolis Center
Tue 12:22:36 PM 43.8514 -90.5217 119° Southeast 445 512 34,300 587 Climbing Chicago Center
Tue 12:23:38 PM 43.7922 -90.3706 118° Southeast 448 516 34,800 447 Climbing Chicago Center
Tue 12:24:10 PM 43.7572 -90.2783 118° Southeast 451 519 35,000 128 Climbing Minneapolis Center
Tue 12:25:12 PM 43.7219 -90.1161 107° East 456 525 35,000  Level Minneapolis Center
Tue 12:25:42 PM 43.7086 -90.0350 103° East 444 511 35,000  Level Chicago Center
Tue 12:26:44 PM 43.6733 -89.8394 104° East 451 519 35,000  Level Chicago Center
Tue 12:27:46 PM 43.6414 -89.6714 105° East 454 522 35,000  Level Chicago Center
Tue 12:28:48 PM 43.6119 -89.5064 104° East 447 514 35,000  Level Chicago Center
Tue 12:29:50 PM 43.5814 -89.3406 104° East 449 517 35,000  Level Chicago Center
Tue 12:30:53 PM 43.5500 -89.1769 105° East 445 512 35,000  Level Chicago Center
Tue 12:31:55 PM 43.5131 -88.9853 105° East 446 513 35,000  Level Chicago Center
Tue 12:32:57 PM 43.4811 -88.8186 105° East 452 520 35,000  Level Chicago Center
Tue 12:33:59 PM 43.4478 -88.6522 105° East 455 524 35,000  Level Chicago Center
Tue 12:35:01 PM 43.3606 -88.5136 131° Southeast 455 524 35,000  Level Chicago Center
Tue 12:36:03 PM 43.2544 -88.4092 144° Southeast 452 520 35,000  Level Chicago Center
Tue 12:37:05 PM 43.1539 -88.3111 145° Southeast 448 516 35,000  Level Chicago Center
Tue 12:38:07 PM 43.0533 -88.2136 145° Southeast 446 513 35,000  Level Chicago Center
Tue 12:39:09 PM 42.9339 -88.0978 145° Southeast 452 520 35,000  Level Chicago Center
Tue 12:40:11 PM 42.8311 -88.0006 145° Southeast 452 520 35,000  Level Chicago Center
Tue 12:41:13 PM 42.7289 -87.9036 145° Southeast 450 518 35,000  Level Chicago Center
Tue 12:42:15 PM 42.6264 -87.8078 145° Southeast 448 516 35,000  Level Chicago Center
Tue 12:43:18 PM 42.5275 -87.7119 144° Southeast 452 520 35,000  Level Chicago Center
Tue 12:44:20 PM 42.4053 -87.5975 145° Southeast 447 514 35,000  Level Chicago Center
Tue 12:45:22 PM 42.3017 -87.5017 146° Southeast 451 519 35,000  Level Chicago Center
Tue 12:46:24 PM 42.2003 -87.4075 145° Southeast 445 512 35,000  Level Chicago Center
Tue 12:47:26 PM 42.0964 -87.3117 146° Southeast 451 519 35,000  Level Chicago Center
Tue 12:48:28 PM 41.9919 -87.2139 145° Southeast 456 525 35,000  Level Chicago Center
Tue 12:49:30 PM 41.8667 -87.0986 146° Southeast 456 525 35,000  Level Chicago Center
Tue 12:50:32 PM 41.7639 -87.0047 146° Southeast 450 518 35,000  Level Chicago Center
Tue 12:51:34 PM 41.6608 -86.9106 146° Southeast 449 517 35,000  Level Chicago Center
Tue 12:52:36 PM 41.5561 -86.8161 146° Southeast 453 521 35,000  Level Chicago Center
Tue 12:53:39 PM 41.4447 -86.7147 146° Southeast 455 524 35,000  Level Chicago Center
Tue 12:54:41 PM 41.3408 -86.6206 146° Southeast 455 524 35,000  Level Chicago Center
Tue 12:55:43 PM 41.2364 -86.5269 146° Southeast 454 522 35,000  Level Chicago Center
Tue 12:56:45 PM 41.1317 -86.4336 146° Southeast 456 525 35,000  Level Chicago Center
Tue 12:57:47 PM 41.0083 -86.3189 145° Southeast 456 525 35,000  Level Chicago Center
Tue 12:58:49 PM 40.9267 -86.1856 129° Southeast 472 543 35,000  Level Chicago Center
Tue 12:59:51 PM 40.8467 -86.0461 127° Southeast 478 550 35,000  Level Chicago Center
Tue 01:00:53 PM 40.7678 -85.9100 127° Southeast 472 543 35,000  Level Chicago Center
Tue 01:01:55 PM 40.6886 -85.7725 127° Southeast 473 544 35,000  Level Chicago Center
Tue 01:02:57 PM 40.6003 -85.6200 127° Southeast 473 544 35,000  Level Chicago Center
Tue 01:03:59 PM 40.5203 -85.4836 128° Southeast 471 542 35,000  Level Chicago Center
Tue 01:05:01 PM 40.4394 -85.3444 127° Southeast 476 548 35,000  Level Chicago Center
Tue 01:06:03 PM 40.3594 -85.2072 127° Southeast 474 545 35,000  Level Chicago Center
Tue 01:07:06 PM 40.2622 -85.0428 128° Southeast 475 547 35,000  Level Chicago Center
Tue 01:08:08 PM 40.1817 -84.9100 128° Southeast 469 540 35,000  Level Chicago Center
Tue 01:09:10 PM 40.1031 -84.7789 128° Southeast 462 532 35,000  Level Chicago Center
Tue 01:10:12 PM 40.0253 -84.6475 128° Southeast 454 522 35,000  Level Chicago Center
Tue 01:11:14 PM 39.9461 -84.5147 128° Southeast 461 531 35,000  Level Chicago Center
Tue 01:12:16 PM 39.8650 -84.3833 129° Southeast 464 534 35,000  Level Chicago Center
Tue 01:13:42 PM 39.7381 -84.1758 128° Southeast 454 522 35,000  Level Indianapolis Center
Tue 01:14:44 PM 39.6594 -84.0461 128° Southeast 454 522 35,000  Level Indianapolis Center
Tue 01:15:46 PM 39.5800 -83.9189 129° Southeast 454 522 35,000  Level Indianapolis Center
Tue 01:16:48 PM 39.5014 -83.7914 129° Southeast 453 521 35,000  Level Indianapolis Center
Tue 01:17:49 PM 39.4219 -83.6642 129° Southeast 453 521 35,000  Level Indianapolis Center
Tue 01:18:51 PM 39.3436 -83.5381 129° Southeast 450 518 35,000  Level Indianapolis Center
Tue 01:19:53 PM 39.2689 -83.4089 127° Southeast 447 514 35,000  Level Indianapolis Center
Tue 01:20:55 PM 39.1842 -83.2533 125° Southeast 451 519 35,000  Level Indianapolis Center
Tue 01:21:57 PM 39.1225 -83.1369 124° Southeast 451 519 35,000  Level Indianapolis Center
Tue 01:22:59 PM 39.0342 -82.9800 126° Southeast 452 520 35,000  Level Indianapolis Center
Tue 01:24:00 PM 38.9625 -82.8494 125° Southeast 449 517 35,000  Level Indianapolis Center
Tue 01:25:02 PM 38.8908 -82.7219 126° Southeast 442 509 35,000  Level Indianapolis Center
Tue 01:26:04 PM 38.8189 -82.5931 126° Southeast 444 511 35,000  Level Indianapolis Center
Tue 01:27:06 PM 38.7472 -82.4658 126° Southeast 442 509 35,000  Level Indianapolis Center
Tue 01:28:08 PM 38.6706 -82.3469 130° Southeast 434 499 35,000  Level Indianapolis Center
Tue 01:29:10 PM 38.5583 -82.2306 141° Southeast 433 498 35,000  Level Indianapolis Center
Tue 01:30:12 PM 38.4664 -82.1328 140° Southeast 433 498 35,000  Level Indianapolis Center
Tue 01:31:14 PM 38.3742 -82.0358 140° Southeast 434 499 35,000  Level Indianapolis Center
Tue 01:32:15 PM 38.3064 -81.9094 124° Southeast 444 511 35,000  Level Indianapolis Center
Tue 01:33:17 PM 38.3000 -81.7481 93° East 471 542 35,000  Level Indianapolis Center
Tue 01:34:19 PM 38.3039 -81.5519 88° East 469 540 35,000  Level Indianapolis Center
Tue 01:35:21 PM 38.3061 -81.3897 89° East 465 535 35,000  Level Indianapolis Center
Tue 01:36:23 PM 38.3086 -81.2294 89° East 458 527 35,000  Level Indianapolis Center
Tue 01:37:25 PM 38.3108 -81.0675 89° East 461 531 35,000  Level Indianapolis Center
Tue 01:38:26 PM 38.3128 -80.9047 89° East 463 533 35,000  Level Indianapolis Center
Tue 01:39:28 PM 38.3133 -80.7392 90° East 469 540 35,000  Level Indianapolis Center
Tue 01:40:25 PM 38.3092 -80.5878 92° East 461 531 35,000  Level Washington Center
Tue 01:41:24 PM 38.2714 -80.4372 108° East 453 521 35,000  Level Washington Center
Tue 01:42:25 PM 38.2317 -80.2864 108° East 448 516 35,000  Level Washington Center
Tue 01:43:25 PM 38.1914 -80.1411 109° East 441 507 35,000 -407 Level Washington Center
Tue 01:44:23 PM 38.1792 -79.9661 95° East 453 521 34,200 -504 Descending Washington Center
Tue 01:45:24 PM 38.2264 -79.8078 69° East 446 513 34,000 -98 Descending Washington Center
Tue 01:46:25 PM 38.2778 -79.6519 67° East 454 522 34,000 -50 Level Washington Center
Tue 01:47:23 PM 38.3267 -79.4931 69° East 459 528 33,900 -1,311 Descending Washington Center
Tue 01:48:24 PM 38.3775 -79.3367 67° East 469 540 31,400 -2,521 Descending Washington Center
Tue 01:49:22 PM 38.4217 -79.1958 68° East 475 547 28,900 -2,218 Descending Washington Center
Tue 01:50:23 PM 38.4678 -79.0417 69° East 465 535 27,000 -1,339 Descending Washington Center
Tue 01:51:23 PM 38.4978 -78.8653 78° East 457 526 26,200 -1,488 Descending Washington Center
Tue 01:52:24 PM 38.5228 -78.7125 78° East 457 526 24,000 -2,033 Descending Washington Center
Tue 01:53:24 PM 38.5475 -78.5594 78° East 444 511 22,100 -1,785 Descending Washington Center
Tue 01:54:25 PM 38.5719 -78.4092 78° East 439 505 20,400 -1,916 Descending Washington Center
Tue 01:55:23 PM 38.5958 -78.2667 78° East 426 490 18,300 -1,916 Descending Washington Center
Tue 01:56:24 PM 38.6383 -78.1378 67° East 399 459 16,600 -1,587 Descending Washington Center
Tue 01:57:24 PM 38.7289 -78.0983 19° North 318 366 15,100 -1,388 Descending Washington Center
Tue 01:58:25 PM 38.8211 -78.0775 10° North 318 366 13,800 -1,210 Descending Washington Center
Tue 01:59:23 PM 38.8944 -78.0586 11° North 318 366 12,700 -857 Descending Washington Center
Tue 02:00:24 PM 38.9808 -78.0083 24° Northeast 318 366 12,100 -298 Descending Washington Center
Tue 02:01:24 PM 39.0081 -77.9022 72° East 289 333 12,100  Level Washington Center
Tue 02:02:24 PM 38.9811 -77.7786 106° East 287 330 12,100 -689 Level Washington Center
Tue 02:04:27 PM 38.9333 -77.5833 107° East 267 307 10,000 -1,148 Descending Potomac TRACON
Tue 02:05:27 PM 38.9167 -77.4833 102° East 263 303 8,600 -1,350 Descending Potomac TRACON
Tue 02:06:27 PM 38.9000 -77.4000 104° East 255 293 7,300 -1,150 Descending Potomac TRACON
Tue 02:07:27 PM 38.8667 -77.3333 123° Southeast 245 282 6,300 -700 Descending Potomac TRACON
Tue 02:08:27 PM 38.8333 -77.2500 117° Southeast 242 278 5,900 -1,000 Descending Potomac TRACON
Tue 02:09:27 PM 38.7667 -77.2333 169° South 231 266 4,300 -950 Descending Potomac TRACON
Tue 02:10:27 PM 38.7000 -77.2167 169° South 234 269 4,000 -150 Descending Potomac TRACON
Tue 02:11:27 PM 38.6500 -77.1667 142° Southeast 214 246 4,000  Level Potomac TRACON
Tue 02:12:22 PM 38.6500 -77.1167 90° East 187 215 4,000  Level Potomac TRACON
Tue 02:13:28 PM 38.6500 -77.0333 90° East 184 212 4,000 -429 Level Potomac TRACON
Tue 02:14:28 PM 38.6833 -77.0167 21° North 169 194 3,100 -900 Descending Potomac TRACON
Tue 02:15:28 PM 38.7333 -77.0333 345° North 163 188 2,200 -900 Descending Potomac TRACON

Login

Don't have an account? Register now (free) for customized features, flight alerts, and more!